Accueil
METAR-TAF:

METAR-TAF

Aéroports :

Aéroport de Lahr

Lahr, Allemagne

latitude: 48-22-09N, longitude: 007-49-40E, altitude: 156 m

Observation

Le bulletin a été fait il y a 15 heures et 21 minutes, à 22:20 UTC
Vent 2 kt de direction variable
Température 14°C
Humidité 58%
Pression 1021 hPa
Visibilité 10 km ou plus
pas de nuages en-dessous de 1500 mètres et pas de cumulonimbus.

METAR: EDTL 292220Z VRB02KT CAVOK 14/06 Q1021

Heure: 15:41 (13:41 UTC)

Prévision

Le bulletin a été fait il y a 23 heures et 41 minutes, à 14:00 UTC
Prévision valable du 29 à 15 UTC au 29 à 24 UTC
Vent 10 kt de nord-est
Visibilité 10 km ou plus
pas de nuages en-dessous de 1500 mètres et pas de cumulonimbus.
Evoluant progressivement
du 29 à 18 UTC au 29 à 21 UTC
Vent 4 kt de est/nord-est

TAF: EDTL 291400Z 2915/2924 05010KT CAVOK BECMG 2918/2921 07004KT

Observations et prévisions météorologiques de plus de 4000 aéroports (messages METAR et TAF).

Les stations disponibles sont représentées par des disques jaunes et rouges sur la carte.

Passer la souris dessus pour voir le nom de la station.

Cliquer dessus pour voir les observations et prévisions météorologiques.

Pour changer de carte: cliquez sur les boutons verts avec une croix noire pour zoomer, sur le bouton vert avec un tiret pour effectuer un zoom arrière, ou sur les flèches vertes pour les cartes adjacentes.


METAR-TAF: